sensor_id;sensor_type;location;lat;lon;timestamp;P1;durP1;ratioP1;P2;durP2;ratioP2
76439;SDS011;65274;44.982;20.060;2023-04-25T00:00:00;10.73;;;8.07;;
76439;SDS011;65274;44.982;20.060;2023-04-25T00:02:26;10.18;;;8.15;;
76439;SDS011;65274;44.982;20.060;2023-04-25T00:04:53;10.52;;;7.65;;
76439;SDS011;65274;44.982;20.060;2023-04-25T00:07:19;9.73;;;7.50;;
76439;SDS011;65274;44.982;20.060;2023-04-25T00:09:45;10.77;;;8.25;;
76439;SDS011;65274;44.982;20.060;2023-04-25T00:12:11;11.27;;;7.53;;
76439;SDS011;65274;44.982;20.060;2023-04-25T00:14:37;10.13;;;7.68;;
76439;SDS011;65274;44.982;20.060;2023-04-25T00:17:03;9.95;;;7.75;;
76439;SDS011;65274;44.982;20.060;2023-04-25T00:19:30;11.85;;;8.25;;
76439;SDS011;65274;44.982;20.060;2023-04-25T00:21:57;9.18;;;7.78;;
76439;SDS011;65274;44.982;20.060;2023-04-25T00:24:23;9.00;;;7.00;;
76439;SDS011;65274;44.982;20.060;2023-04-25T00:26:49;9.20;;;7.68;;
76439;SDS011;65274;44.982;20.060;2023-04-25T00:29:16;8.50;;;7.28;;
76439;SDS011;65274;44.982;20.060;2023-04-25T00:31:42;8.02;;;7.18;;
76439;SDS011;65274;44.982;20.060;2023-04-25T00:34:08;9.07;;;6.50;;
76439;SDS011;65274;44.982;20.060;2023-04-25T00:36:34;8.15;;;6.95;;
76439;SDS011;65274;44.982;20.060;2023-04-25T00:39:00;8.82;;;7.40;;
76439;SDS011;65274;44.982;20.060;2023-04-25T00:41:26;7.75;;;6.40;;
76439;SDS011;65274;44.982;20.060;2023-04-25T00:43:53;9.48;;;6.95;;
76439;SDS011;65274;44.982;20.060;2023-04-25T00:46:19;9.40;;;7.20;;
76439;SDS011;65274;44.982;20.060;2023-04-25T00:48:46;11.57;;;7.80;;
76439;SDS011;65274;44.982;20.060;2023-04-25T00:51:16;11.07;;;7.65;;
76439;SDS011;65274;44.982;20.060;2023-04-25T00:53:42;8.40;;;7.32;;
76439;SDS011;65274;44.982;20.060;2023-04-25T00:56:08;8.65;;;7.30;;
76439;SDS011;65274;44.982;20.060;2023-04-25T00:58:34;11.10;;;7.18;;
76439;SDS011;65274;44.982;20.060;2023-04-25T01:01:00;6.55;;;5.47;;
76439;SDS011;65274;44.982;20.060;2023-04-25T01:03:27;8.30;;;6.22;;
76439;SDS011;65274;44.982;20.060;2023-04-25T01:05:53;6.45;;;5.50;;
76439;SDS011;65274;44.982;20.060;2023-04-25T01:08:21;6.22;;;4.85;;
76439;SDS011;65274;44.982;20.060;2023-04-25T01:10:50;8.52;;;4.10;;
76439;SDS011;65274;44.982;20.060;2023-04-25T01:13:16;5.32;;;4.82;;
76439;SDS011;65274;44.982;20.060;2023-04-25T01:15:42;6.25;;;4.63;;
76439;SDS011;65274;44.982;20.060;2023-04-25T01:18:08;4.75;;;4.25;;
76439;SDS011;65274;44.982;20.060;2023-04-25T01:20:35;4.55;;;4.15;;
76439;SDS011;65274;44.982;20.060;2023-04-25T01:23:03;3.67;;;3.33;;
76439;SDS011;65274;44.982;20.060;2023-04-25T01:25:32;6.25;;;4.00;;
76439;SDS011;65274;44.982;20.060;2023-04-25T01:27:58;5.65;;;3.83;;
76439;SDS011;65274;44.982;20.060;2023-04-25T01:30:27;6.18;;;4.05;;
76439;SDS011;65274;44.982;20.060;2023-04-25T01:32:54;4.65;;;3.70;;
76439;SDS011;65274;44.982;20.060;2023-04-25T01:35:21;6.90;;;3.40;;
76439;SDS011;65274;44.982;20.060;2023-04-25T01:37:48;5.63;;;3.83;;
76439;SDS011;65274;44.982;20.060;2023-04-25T01:40:15;4.32;;;3.58;;
76439;SDS011;65274;44.982;20.060;2023-04-25T01:42:43;4.88;;;3.78;;
76439;SDS011;65274;44.982;20.060;2023-04-25T01:45:10;3.50;;;3.17;;
76439;SDS011;65274;44.982;20.060;2023-04-25T01:47:36;3.50;;;3.20;;
76439;SDS011;65274;44.982;20.060;2023-04-25T01:50:03;4.05;;;3.65;;
76439;SDS011;65274;44.982;20.060;2023-04-25T01:52:29;4.75;;;3.20;;
76439;SDS011;65274;44.982;20.060;2023-04-25T01:54:56;3.17;;;2.80;;
76439;SDS011;65274;44.982;20.060;2023-04-25T01:57:23;4.72;;;3.45;;
76439;SDS011;65274;44.982;20.060;2023-04-25T01:59:49;3.22;;;2.92;;
76439;SDS011;65274;44.982;20.060;2023-04-25T02:02:16;5.13;;;3.50;;
76439;SDS011;65274;44.982;20.060;2023-04-25T02:04:42;6.00;;;3.53;;
76439;SDS011;65274;44.982;20.060;2023-04-25T02:07:08;6.95;;;3.90;;
76439;SDS011;65274;44.982;20.060;2023-04-25T02:09:34;7.40;;;4.13;;
76439;SDS011;65274;44.982;20.060;2023-04-25T02:12:00;4.93;;;3.50;;
76439;SDS011;65274;44.982;20.060;2023-04-25T02:14:26;5.55;;;4.13;;
76439;SDS011;65274;44.982;20.060;2023-04-25T02:16:53;6.60;;;3.38;;
76439;SDS011;65274;44.982;20.060;2023-04-25T02:19:19;5.90;;;4.22;;
76439;SDS011;65274;44.982;20.060;2023-04-25T02:21:45;5.78;;;4.30;;
76439;SDS011;65274;44.982;20.060;2023-04-25T02:24:11;4.70;;;3.83;;
76439;SDS011;65274;44.982;20.060;2023-04-25T02:26:37;6.53;;;4.90;;
76439;SDS011;65274;44.982;20.060;2023-04-25T02:29:03;5.72;;;4.03;;
76439;SDS011;65274;44.982;20.060;2023-04-25T02:31:30;4.63;;;4.15;;
76439;SDS011;65274;44.982;20.060;2023-04-25T02:33:56;5.57;;;4.65;;
76439;SDS011;65274;44.982;20.060;2023-04-25T02:36:22;7.75;;;4.57;;
76439;SDS011;65274;44.982;20.060;2023-04-25T02:38:49;5.40;;;4.30;;
76439;SDS011;65274;44.982;20.060;2023-04-25T02:41:15;4.47;;;4.07;;
76439;SDS011;65274;44.982;20.060;2023-04-25T02:43:41;6.35;;;4.13;;
76439;SDS011;65274;44.982;20.060;2023-04-25T02:46:07;6.07;;;4.07;;
76439;SDS011;65274;44.982;20.060;2023-04-25T02:48:33;7.20;;;4.78;;
76439;SDS011;65274;44.982;20.060;2023-04-25T02:50:59;4.70;;;4.10;;
76439;SDS011;65274;44.982;20.060;2023-04-25T02:53:25;6.63;;;4.40;;
76439;SDS011;65274;44.982;20.060;2023-04-25T02:55:51;4.65;;;3.92;;
76439;SDS011;65274;44.982;20.060;2023-04-25T02:58:18;6.35;;;4.00;;
76439;SDS011;65274;44.982;20.060;2023-04-25T03:00:44;5.45;;;4.20;;
76439;SDS011;65274;44.982;20.060;2023-04-25T03:03:10;4.07;;;3.40;;
76439;SDS011;65274;44.982;20.060;2023-04-25T03:05:36;5.03;;;3.53;;
76439;SDS011;65274;44.982;20.060;2023-04-25T03:08:02;8.40;;;4.18;;
76439;SDS011;65274;44.982;20.060;2023-04-25T03:10:28;5.72;;;3.90;;
76439;SDS011;65274;44.982;20.060;2023-04-25T03:12:54;11.18;;;4.38;;
76439;SDS011;65274;44.982;20.060;2023-04-25T03:15:20;5.90;;;4.35;;
76439;SDS011;65274;44.982;20.060;2023-04-25T03:17:47;6.60;;;4.55;;
76439;SDS011;65274;44.982;20.060;2023-04-25T03:20:13;4.50;;;3.75;;
76439;SDS011;65274;44.982;20.060;2023-04-25T03:22:39;6.50;;;3.45;;
76439;SDS011;65274;44.982;20.060;2023-04-25T03:25:05;5.45;;;4.32;;
76439;SDS011;65274;44.982;20.060;2023-04-25T03:27:31;5.68;;;3.95;;
76439;SDS011;65274;44.982;20.060;2023-04-25T03:29:57;5.38;;;3.80;;
76439;SDS011;65274;44.982;20.060;2023-04-25T03:32:24;5.20;;;3.85;;
76439;SDS011;65274;44.982;20.060;2023-04-25T03:34:50;5.20;;;3.97;;
76439;SDS011;65274;44.982;20.060;2023-04-25T03:37:16;4.65;;;3.83;;
76439;SDS011;65274;44.982;20.060;2023-04-25T03:39:42;7.72;;;3.92;;
76439;SDS011;65274;44.982;20.060;2023-04-25T03:42:08;6.28;;;3.85;;
76439;SDS011;65274;44.982;20.060;2023-04-25T03:44:34;5.68;;;4.28;;
76439;SDS011;65274;44.982;20.060;2023-04-25T03:47:00;8.55;;;4.07;;
76439;SDS011;65274;44.982;20.060;2023-04-25T03:49:26;7.22;;;4.00;;
76439;SDS011;65274;44.982;20.060;2023-04-25T03:51:52;5.47;;;4.18;;
76439;SDS011;65274;44.982;20.060;2023-04-25T03:54:18;6.85;;;3.92;;
76439;SDS011;65274;44.982;20.060;2023-04-25T03:56:45;5.78;;;3.67;;
76439;SDS011;65274;44.982;20.060;2023-04-25T03:59:11;4.60;;;3.80;;
76439;SDS011;65274;44.982;20.060;2023-04-25T04:01:37;2.92;;;2.70;;
76439;SDS011;65274;44.982;20.060;2023-04-25T04:04:03;2.50;;;1.90;;
76439;SDS011;65274;44.982;20.060;2023-04-25T04:06:29;4.28;;;2.58;;
76439;SDS011;65274;44.982;20.060;2023-04-25T04:08:55;2.10;;;1.90;;
76439;SDS011;65274;44.982;20.060;2023-04-25T04:11:21;3.60;;;2.20;;
76439;SDS011;65274;44.982;20.060;2023-04-25T04:13:47;3.63;;;2.90;;
76439;SDS011;65274;44.982;20.060;2023-04-25T04:16:13;2.95;;;2.50;;
76439;SDS011;65274;44.982;20.060;2023-04-25T04:18:40;5.32;;;2.63;;
76439;SDS011;65274;44.982;20.060;2023-04-25T04:21:06;4.38;;;2.90;;
76439;SDS011;65274;44.982;20.060;2023-04-25T04:23:32;2.50;;;2.30;;
76439;SDS011;65274;44.982;20.060;2023-04-25T04:25:58;6.07;;;2.25;;
76439;SDS011;65274;44.982;20.060;2023-04-25T04:28:25;3.42;;;2.03;;
76439;SDS011;65274;44.982;20.060;2023-04-25T04:30:51;2.20;;;1.60;;
76439;SDS011;65274;44.982;20.060;2023-04-25T04:33:17;3.83;;;2.13;;
76439;SDS011;65274;44.982;20.060;2023-04-25T04:35:44;3.65;;;2.13;;
76439;SDS011;65274;44.982;20.060;2023-04-25T04:38:12;3.42;;;1.90;;
76439;SDS011;65274;44.982;20.060;2023-04-25T04:40:40;2.72;;;2.30;;
76439;SDS011;65274;44.982;20.060;2023-04-25T04:43:08;4.72;;;2.53;;
76439;SDS011;65274;44.982;20.060;2023-04-25T04:45:35;3.67;;;3.25;;
76439;SDS011;65274;44.982;20.060;2023-04-25T04:48:04;3.45;;;3.15;;
76439;SDS011;65274;44.982;20.060;2023-04-25T04:50:30;3.75;;;3.38;;
76439;SDS011;65274;44.982;20.060;2023-04-25T04:52:57;3.83;;;2.83;;
76439;SDS011;65274;44.982;20.060;2023-04-25T04:55:23;3.13;;;2.83;;
76439;SDS011;65274;44.982;20.060;2023-04-25T04:57:49;4.10;;;3.55;;
76439;SDS011;65274;44.982;20.060;2023-04-25T05:00:15;5.68;;;3.20;;
76439;SDS011;65274;44.982;20.060;2023-04-25T05:02:42;3.45;;;3.10;;
76439;SDS011;65274;44.982;20.060;2023-04-25T05:05:08;5.78;;;3.53;;
76439;SDS011;65274;44.982;20.060;2023-04-25T05:07:34;4.35;;;3.95;;
76439;SDS011;65274;44.982;20.060;2023-04-25T05:10:00;4.45;;;3.38;;
76439;SDS011;65274;44.982;20.060;2023-04-25T05:12:26;3.58;;;3.28;;
76439;SDS011;65274;44.982;20.060;2023-04-25T05:14:52;4.90;;;4.47;;
76439;SDS011;65274;44.982;20.060;2023-04-25T05:17:18;3.92;;;3.42;;
76439;SDS011;65274;44.982;20.060;2023-04-25T05:19:44;6.50;;;3.63;;
76439;SDS011;65274;44.982;20.060;2023-04-25T05:22:10;5.05;;;3.97;;
76439;SDS011;65274;44.982;20.060;2023-04-25T05:24:36;4.63;;;3.60;;
76439;SDS011;65274;44.982;20.060;2023-04-25T05:27:03;4.15;;;3.55;;
76439;SDS011;65274;44.982;20.060;2023-04-25T05:29:30;5.53;;;4.10;;
76439;SDS011;65274;44.982;20.060;2023-04-25T05:31:56;4.63;;;4.15;;
76439;SDS011;65274;44.982;20.060;2023-04-25T05:34:22;3.65;;;3.35;;
76439;SDS011;65274;44.982;20.060;2023-04-25T05:36:48;5.95;;;5.45;;
76439;SDS011;65274;44.982;20.060;2023-04-25T05:39:15;4.55;;;4.15;;
76439;SDS011;65274;44.982;20.060;2023-04-25T05:41:42;4.85;;;4.35;;
76439;SDS011;65274;44.982;20.060;2023-04-25T05:44:08;6.43;;;4.38;;
76439;SDS011;65274;44.982;20.060;2023-04-25T05:46:35;2.75;;;2.55;;
76439;SDS011;65274;44.982;20.060;2023-04-25T05:49:01;3.65;;;3.35;;
76439;SDS011;65274;44.982;20.060;2023-04-25T05:51:27;4.47;;;2.92;;
76439;SDS011;65274;44.982;20.060;2023-04-25T05:53:53;3.10;;;2.90;;
76439;SDS011;65274;44.982;20.060;2023-04-25T05:56:19;3.10;;;2.80;;
76439;SDS011;65274;44.982;20.060;2023-04-25T05:58:45;3.22;;;2.92;;
76439;SDS011;65274;44.982;20.060;2023-04-25T06:01:12;6.38;;;3.75;;
76439;SDS011;65274;44.982;20.060;2023-04-25T06:03:38;3.45;;;3.15;;
76439;SDS011;65274;44.982;20.060;2023-04-25T06:06:04;3.92;;;3.30;;
76439;SDS011;65274;44.982;20.060;2023-04-25T06:08:30;4.25;;;3.85;;
76439;SDS011;65274;44.982;20.060;2023-04-25T06:10:56;5.15;;;4.65;;
76439;SDS011;65274;44.982;20.060;2023-04-25T06:13:22;6.90;;;3.95;;
76439;SDS011;65274;44.982;20.060;2023-04-25T06:15:48;5.20;;;4.03;;
76439;SDS011;65274;44.982;20.060;2023-04-25T06:18:14;4.85;;;3.95;;
76439;SDS011;65274;44.982;20.060;2023-04-25T06:20:40;4.70;;;3.13;;
76439;SDS011;65274;44.982;20.060;2023-04-25T06:23:06;3.67;;;2.67;;
76439;SDS011;65274;44.982;20.060;2023-04-25T06:25:32;4.93;;;3.10;;
76439;SDS011;65274;44.982;20.060;2023-04-25T06:27:58;7.57;;;3.13;;
76439;SDS011;65274;44.982;20.060;2023-04-25T06:30:24;3.53;;;2.55;;
76439;SDS011;65274;44.982;20.060;2023-04-25T06:32:53;4.28;;;3.05;;
76439;SDS011;65274;44.982;20.060;2023-04-25T06:35:19;4.07;;;3.00;;
76439;SDS011;65274;44.982;20.060;2023-04-25T06:37:45;4.28;;;2.53;;
76439;SDS011;65274;44.982;20.060;2023-04-25T06:40:11;2.83;;;2.40;;
76439;SDS011;65274;44.982;20.060;2023-04-25T06:42:37;3.58;;;2.70;;
76439;SDS011;65274;44.982;20.060;2023-04-25T06:45:04;4.28;;;3.67;;
76439;SDS011;65274;44.982;20.060;2023-04-25T06:47:30;4.07;;;3.40;;
76439;SDS011;65274;44.982;20.060;2023-04-25T06:49:56;5.55;;;2.95;;
76439;SDS011;65274;44.982;20.060;2023-04-25T06:52:22;3.65;;;2.45;;
76439;SDS011;65274;44.982;20.060;2023-04-25T06:54:48;6.65;;;3.00;;
76439;SDS011;65274;44.982;20.060;2023-04-25T06:57:14;8.68;;;4.95;;
76439;SDS011;65274;44.982;20.060;2023-04-25T06:59:40;4.25;;;3.85;;
76439;SDS011;65274;44.982;20.060;2023-04-25T07:02:06;3.22;;;2.88;;
76439;SDS011;65274;44.982;20.060;2023-04-25T07:04:32;12.98;;;4.53;;
76439;SDS011;65274;44.982;20.060;2023-04-25T07:06:59;4.80;;;3.55;;
76439;SDS011;65274;44.982;20.060;2023-04-25T07:09:27;3.60;;;2.83;;
76439;SDS011;65274;44.982;20.060;2023-04-25T07:11:53;4.55;;;2.38;;
76439;SDS011;65274;44.982;20.060;2023-04-25T07:14:19;2.70;;;2.38;;
76439;SDS011;65274;44.982;20.060;2023-04-25T07:16:45;4.43;;;2.65;;
76439;SDS011;65274;44.982;20.060;2023-04-25T07:19:11;4.18;;;2.47;;
76439;SDS011;65274;44.982;20.060;2023-04-25T07:21:38;3.85;;;2.60;;
76439;SDS011;65274;44.982;20.060;2023-04-25T07:24:04;3.88;;;2.83;;
76439;SDS011;65274;44.982;20.060;2023-04-25T07:26:30;4.25;;;2.72;;
76439;SDS011;65274;44.982;20.060;2023-04-25T07:28:56;6.95;;;2.65;;
76439;SDS011;65274;44.982;20.060;2023-04-25T07:31:22;2.72;;;2.35;;
76439;SDS011;65274;44.982;20.060;2023-04-25T07:33:48;4.05;;;2.67;;
76439;SDS011;65274;44.982;20.060;2023-04-25T07:36:14;3.50;;;2.80;;
76439;SDS011;65274;44.982;20.060;2023-04-25T07:38:40;4.95;;;2.90;;
76439;SDS011;65274;44.982;20.060;2023-04-25T07:41:07;10.18;;;4.38;;
76439;SDS011;65274;44.982;20.060;2023-04-25T07:43:33;5.55;;;3.95;;
76439;SDS011;65274;44.982;20.060;2023-04-25T07:45:59;3.83;;;3.03;;
76439;SDS011;65274;44.982;20.060;2023-04-25T07:48:25;6.28;;;4.07;;
76439;SDS011;65274;44.982;20.060;2023-04-25T07:50:51;3.83;;;3.15;;
76439;SDS011;65274;44.982;20.060;2023-04-25T07:53:17;3.42;;;2.72;;
76439;SDS011;65274;44.982;20.060;2023-04-25T07:55:43;3.65;;;2.90;;
76439;SDS011;65274;44.982;20.060;2023-04-25T07:58:10;3.35;;;2.65;;
76439;SDS011;65274;44.982;20.060;2023-04-25T08:00:37;3.65;;;2.88;;
76439;SDS011;65274;44.982;20.060;2023-04-25T08:03:03;4.03;;;2.78;;
76439;SDS011;65274;44.982;20.060;2023-04-25T08:05:29;2.60;;;2.40;;
76439;SDS011;65274;44.982;20.060;2023-04-25T08:07:55;4.82;;;2.08;;
76439;SDS011;65274;44.982;20.060;2023-04-25T08:10:22;3.10;;;2.47;;
76439;SDS011;65274;44.982;20.060;2023-04-25T08:12:48;2.90;;;2.55;;
76439;SDS011;65274;44.982;20.060;2023-04-25T08:15:14;3.22;;;2.45;;
76439;SDS011;65274;44.982;20.060;2023-04-25T08:17:47;2.85;;;2.60;;
76439;SDS011;65274;44.982;20.060;2023-04-25T08:20:20;3.13;;;2.80;;
76439;SDS011;65274;44.982;20.060;2023-04-25T08:22:46;2.60;;;2.40;;
76439;SDS011;65274;44.982;20.060;2023-04-25T08:25:13;8.80;;;5.27;;
76439;SDS011;65274;44.982;20.060;2023-04-25T08:27:39;13.30;;;8.32;;
76439;SDS011;65274;44.982;20.060;2023-04-25T08:30:06;3.95;;;3.30;;
76439;SDS011;65274;44.982;20.060;2023-04-25T08:32:33;4.60;;;3.25;;
76439;SDS011;65274;44.982;20.060;2023-04-25T08:35:02;3.03;;;2.80;;
76439;SDS011;65274;44.982;20.060;2023-04-25T08:37:29;3.85;;;2.42;;
76439;SDS011;65274;44.982;20.060;2023-04-25T08:39:55;3.83;;;2.47;;
76439;SDS011;65274;44.982;20.060;2023-04-25T08:42:21;7.20;;;4.32;;
76439;SDS011;65274;44.982;20.060;2023-04-25T08:44:48;8.55;;;3.63;;
76439;SDS011;65274;44.982;20.060;2023-04-25T08:47:14;2.92;;;2.65;;
76439;SDS011;65274;44.982;20.060;2023-04-25T08:49:42;3.83;;;2.60;;
76439;SDS011;65274;44.982;20.060;2023-04-25T08:52:11;2.50;;;2.28;;
76439;SDS011;65274;44.982;20.060;2023-04-25T08:54:41;2.35;;;2.15;;
76439;SDS011;65274;44.982;20.060;2023-04-25T08:57:08;2.28;;;1.88;;
76439;SDS011;65274;44.982;20.060;2023-04-25T08:59:34;4.18;;;2.38;;
76439;SDS011;65274;44.982;20.060;2023-04-25T09:02:02;3.07;;;2.70;;
76439;SDS011;65274;44.982;20.060;2023-04-25T09:04:30;4.57;;;2.60;;
76439;SDS011;65274;44.982;20.060;2023-04-25T09:06:56;4.65;;;3.20;;
76439;SDS011;65274;44.982;20.060;2023-04-25T09:09:23;3.28;;;2.97;;
76439;SDS011;65274;44.982;20.060;2023-04-25T09:11:49;4.60;;;3.10;;
76439;SDS011;65274;44.982;20.060;2023-04-25T09:14:16;2.65;;;2.45;;
76439;SDS011;65274;44.982;20.060;2023-04-25T09:19:34;4.18;;;2.85;;
76439;SDS011;65274;44.982;20.060;2023-04-25T09:22:04;5.97;;;2.55;;
76439;SDS011;65274;44.982;20.060;2023-04-25T09:24:40;4.50;;;2.90;;
76439;SDS011;65274;44.982;20.060;2023-04-25T09:27:18;3.50;;;2.65;;
76439;SDS011;65274;44.982;20.060;2023-04-25T09:29:45;4.55;;;3.03;;
76439;SDS011;65274;44.982;20.060;2023-04-25T09:34:40;9.68;;;5.50;;
76439;SDS011;65274;44.982;20.060;2023-04-25T09:37:08;3.80;;;2.55;;
76439;SDS011;65274;44.982;20.060;2023-04-25T09:39:35;3.05;;;2.58;;
76439;SDS011;65274;44.982;20.060;2023-04-25T09:42:02;2.30;;;2.10;;
76439;SDS011;65274;44.982;20.060;2023-04-25T09:44:28;8.98;;;6.35;;
76439;SDS011;65274;44.982;20.060;2023-04-25T09:46:54;10.32;;;5.72;;
76439;SDS011;65274;44.982;20.060;2023-04-25T09:49:20;7.53;;;4.75;;
76439;SDS011;65274;44.982;20.060;2023-04-25T09:51:56;8.63;;;6.78;;
76439;SDS011;65274;44.982;20.060;2023-04-25T09:54:23;3.97;;;3.15;;
76439;SDS011;65274;44.982;20.060;2023-04-25T09:56:49;3.08;;;2.70;;
76439;SDS011;65274;44.982;20.060;2023-04-25T09:59:18;6.75;;;5.05;;
76439;SDS011;65274;44.982;20.060;2023-04-25T10:01:45;8.75;;;7.10;;
76439;SDS011;65274;44.982;20.060;2023-04-25T10:04:12;15.30;;;9.57;;
76439;SDS011;65274;44.982;20.060;2023-04-25T10:06:38;13.75;;;11.35;;
76439;SDS011;65274;44.982;20.060;2023-04-25T10:09:06;3.13;;;2.83;;
76439;SDS011;65274;44.982;20.060;2023-04-25T10:11:32;4.13;;;2.88;;
76439;SDS011;65274;44.982;20.060;2023-04-25T10:13:59;3.08;;;2.00;;
76439;SDS011;65274;44.982;20.060;2023-04-25T10:16:25;3.63;;;2.28;;
76439;SDS011;65274;44.982;20.060;2023-04-25T10:18:52;2.65;;;2.15;;
76439;SDS011;65274;44.982;20.060;2023-04-25T10:21:18;4.70;;;2.63;;
76439;SDS011;65274;44.982;20.060;2023-04-25T10:23:45;4.37;;;2.67;;
76439;SDS011;65274;44.982;20.060;2023-04-25T10:26:11;2.85;;;2.55;;
76439;SDS011;65274;44.982;20.060;2023-04-25T10:28:57;2.45;;;2.25;;
76439;SDS011;65274;44.982;20.060;2023-04-25T10:31:23;4.05;;;2.63;;
76439;SDS011;65274;44.982;20.060;2023-04-25T10:33:49;2.92;;;2.10;;
76439;SDS011;65274;44.982;20.060;2023-04-25T10:36:19;5.55;;;2.53;;
76439;SDS011;65274;44.982;20.060;2023-04-25T10:38:46;7.93;;;3.45;;
76439;SDS011;65274;44.982;20.060;2023-04-25T10:41:13;8.40;;;5.10;;
76439;SDS011;65274;44.982;20.060;2023-04-25T10:43:40;4.82;;;3.47;;
76439;SDS011;65274;44.982;20.060;2023-04-25T10:46:23;5.30;;;4.40;;
76439;SDS011;65274;44.982;20.060;2023-04-25T10:48:50;4.00;;;3.60;;
76439;SDS011;65274;44.982;20.060;2023-04-25T10:51:17;2.83;;;2.50;;
76439;SDS011;65274;44.982;20.060;2023-04-25T10:53:44;2.25;;;2.05;;
76439;SDS011;65274;44.982;20.060;2023-04-25T10:56:18;3.90;;;2.70;;
76439;SDS011;65274;44.982;20.060;2023-04-25T10:58:45;4.40;;;2.80;;
76439;SDS011;65274;44.982;20.060;2023-04-25T11:01:12;3.53;;;2.75;;
76439;SDS011;65274;44.982;20.060;2023-04-25T11:03:41;3.92;;;2.70;;
76439;SDS011;65274;44.982;20.060;2023-04-25T11:06:20;1.90;;;1.80;;
76439;SDS011;65274;44.982;20.060;2023-04-25T11:08:49;5.75;;;2.22;;
76439;SDS011;65274;44.982;20.060;2023-04-25T11:11:18;3.90;;;2.65;;
76439;SDS011;65274;44.982;20.060;2023-04-25T11:13:48;3.13;;;2.33;;
76439;SDS011;65274;44.982;20.060;2023-04-25T11:16:15;4.35;;;3.08;;
76439;SDS011;65274;44.982;20.060;2023-04-25T11:18:41;5.03;;;1.90;;
76439;SDS011;65274;44.982;20.060;2023-04-25T11:21:08;2.72;;;2.15;;
76439;SDS011;65274;44.982;20.060;2023-04-25T11:23:34;3.00;;;2.30;;
76439;SDS011;65274;44.982;20.060;2023-04-25T11:26:00;4.50;;;2.83;;
76439;SDS011;65274;44.982;20.060;2023-04-25T11:28:26;3.20;;;2.20;;
76439;SDS011;65274;44.982;20.060;2023-04-25T11:30:52;3.90;;;2.97;;
76439;SDS011;65274;44.982;20.060;2023-04-25T11:33:22;2.17;;;1.98;;
76439;SDS011;65274;44.982;20.060;2023-04-25T11:35:48;2.03;;;1.80;;
76439;SDS011;65274;44.982;20.060;2023-04-25T11:38:14;3.33;;;2.72;;
76439;SDS011;65274;44.982;20.060;2023-04-25T11:40:41;4.10;;;2.53;;
76439;SDS011;65274;44.982;20.060;2023-04-25T11:43:07;7.78;;;3.47;;
76439;SDS011;65274;44.982;20.060;2023-04-25T11:45:36;4.05;;;2.20;;
76439;SDS011;65274;44.982;20.060;2023-04-25T11:48:02;3.28;;;2.45;;
76439;SDS011;65274;44.982;20.060;2023-04-25T11:50:28;3.60;;;1.88;;
76439;SDS011;65274;44.982;20.060;2023-04-25T11:52:55;3.55;;;2.08;;
76439;SDS011;65274;44.982;20.060;2023-04-25T11:55:22;3.67;;;1.83;;
76439;SDS011;65274;44.982;20.060;2023-04-25T11:57:48;8.65;;;2.67;;
76439;SDS011;65274;44.982;20.060;2023-04-25T12:00:16;3.60;;;1.90;;
76439;SDS011;65274;44.982;20.060;2023-04-25T12:02:43;3.63;;;2.50;;
76439;SDS011;65274;44.982;20.060;2023-04-25T12:05:10;4.05;;;2.53;;
76439;SDS011;65274;44.982;20.060;2023-04-25T12:07:37;11.30;;;3.28;;
76439;SDS011;65274;44.982;20.060;2023-04-25T12:12:33;1.98;;;1.80;;
76439;SDS011;65274;44.982;20.060;2023-04-25T12:15:16;2.03;;;1.80;;
76439;SDS011;65274;44.982;20.060;2023-04-25T12:17:48;4.45;;;2.30;;
76439;SDS011;65274;44.982;20.060;2023-04-25T12:20:15;2.47;;;1.70;;
76439;SDS011;65274;44.982;20.060;2023-04-25T12:22:42;4.32;;;2.30;;
76439;SDS011;65274;44.982;20.060;2023-04-25T12:28:08;9.30;;;2.58;;
76439;SDS011;65274;44.982;20.060;2023-04-25T12:30:51;4.82;;;3.45;;
76439;SDS011;65274;44.982;20.060;2023-04-25T12:33:17;5.15;;;3.65;;
76439;SDS011;65274;44.982;20.060;2023-04-25T12:35:44;3.28;;;2.92;;
76439;SDS011;65274;44.982;20.060;2023-04-25T12:38:10;7.35;;;4.00;;
76439;SDS011;65274;44.982;20.060;2023-04-25T12:40:36;4.20;;;3.13;;
76439;SDS011;65274;44.982;20.060;2023-04-25T12:43:02;3.20;;;2.88;;
76439;SDS011;65274;44.982;20.060;2023-04-25T12:45:28;3.65;;;2.72;;
76439;SDS011;65274;44.982;20.060;2023-04-25T12:47:54;3.22;;;2.30;;
76439;SDS011;65274;44.982;20.060;2023-04-25T12:50:20;2.15;;;1.95;;
76439;SDS011;65274;44.982;20.060;2023-04-25T12:52:46;2.20;;;2.00;;
76439;SDS011;65274;44.982;20.060;2023-04-25T12:55:12;3.42;;;2.60;;
76439;SDS011;65274;44.982;20.060;2023-04-25T12:57:38;6.07;;;3.40;;
76439;SDS011;65274;44.982;20.060;2023-04-25T13:00:05;7.78;;;4.03;;
76439;SDS011;65274;44.982;20.060;2023-04-25T13:02:33;6.38;;;4.05;;
76439;SDS011;65274;44.982;20.060;2023-04-25T13:04:59;4.68;;;2.88;;
76439;SDS011;65274;44.982;20.060;2023-04-25T13:07:25;4.35;;;2.55;;
76439;SDS011;65274;44.982;20.060;2023-04-25T13:09:51;2.67;;;2.30;;
76439;SDS011;65274;44.982;20.060;2023-04-25T13:12:17;3.42;;;1.77;;
76439;SDS011;65274;44.982;20.060;2023-04-25T13:14:43;5.25;;;4.53;;
76439;SDS011;65274;44.982;20.060;2023-04-25T13:17:09;3.38;;;2.90;;
76439;SDS011;65274;44.982;20.060;2023-04-25T13:19:35;4.88;;;4.10;;
76439;SDS011;65274;44.982;20.060;2023-04-25T13:22:03;3.88;;;2.45;;
76439;SDS011;65274;44.982;20.060;2023-04-25T13:24:29;4.85;;;4.35;;
76439;SDS011;65274;44.982;20.060;2023-04-25T13:26:55;3.45;;;1.88;;
76439;SDS011;65274;44.982;20.060;2023-04-25T13:29:21;2.22;;;1.98;;
76439;SDS011;65274;44.982;20.060;2023-04-25T13:31:47;4.75;;;2.22;;
76439;SDS011;65274;44.982;20.060;2023-04-25T13:34:13;2.72;;;2.25;;
76439;SDS011;65274;44.982;20.060;2023-04-25T13:36:40;8.35;;;3.55;;
76439;SDS011;65274;44.982;20.060;2023-04-25T13:39:06;6.30;;;4.82;;
76439;SDS011;65274;44.982;20.060;2023-04-25T13:41:32;2.72;;;1.70;;
76439;SDS011;65274;44.982;20.060;2023-04-25T13:43:58;2.20;;;1.98;;
76439;SDS011;65274;44.982;20.060;2023-04-25T13:46:25;2.58;;;1.80;;
76439;SDS011;65274;44.982;20.060;2023-04-25T13:48:52;6.57;;;1.88;;
76439;SDS011;65274;44.982;20.060;2023-04-25T13:51:18;3.45;;;2.13;;
76439;SDS011;65274;44.982;20.060;2023-04-25T13:53:44;2.35;;;1.65;;
76439;SDS011;65274;44.982;20.060;2023-04-25T13:56:10;1.73;;;1.58;;
76439;SDS011;65274;44.982;20.060;2023-04-25T13:58:36;5.10;;;2.25;;
76439;SDS011;65274;44.982;20.060;2023-04-25T14:01:02;1.20;;;1.17;;
76439;SDS011;65274;44.982;20.060;2023-04-25T14:03:29;1.17;;;1.08;;
76439;SDS011;65274;44.982;20.060;2023-04-25T14:05:55;3.83;;;1.17;;
76439;SDS011;65274;44.982;20.060;2023-04-25T14:08:21;1.40;;;1.30;;
76439;SDS011;65274;44.982;20.060;2023-04-25T14:10:47;2.08;;;1.20;;
76439;SDS011;65274;44.982;20.060;2023-04-25T14:13:13;1.52;;;1.27;;
76439;SDS011;65274;44.982;20.060;2023-04-25T14:15:40;1.80;;;1.55;;
76439;SDS011;65274;44.982;20.060;2023-04-25T14:18:06;2.83;;;1.17;;
76439;SDS011;65274;44.982;20.060;2023-04-25T14:20:32;1.45;;;1.35;;
76439;SDS011;65274;44.982;20.060;2023-04-25T14:22:58;1.95;;;1.42;;
76439;SDS011;65274;44.982;20.060;2023-04-25T14:25:24;1.15;;;1.10;;
76439;SDS011;65274;44.982;20.060;2023-04-25T14:27:50;1.67;;;1.00;;
76439;SDS011;65274;44.982;20.060;2023-04-25T14:30:20;6.78;;;1.55;;
76439;SDS011;65274;44.982;20.060;2023-04-25T14:32:48;2.63;;;1.25;;
76439;SDS011;65274;44.982;20.060;2023-04-25T14:37:40;3.60;;;2.15;;
76439;SDS011;65274;44.982;20.060;2023-04-25T14:40:07;2.33;;;1.95;;
76439;SDS011;65274;44.982;20.060;2023-04-25T14:42:35;2.00;;;1.80;;